createdAt,value
2018-09-05T00:00:45.761Z,74.58
2018-09-05T00:03:14.582Z,74.83
2018-09-05T00:05:43.055Z,74.46
2018-09-05T00:08:12.010Z,74.93
2018-09-05T00:10:40.944Z,74.41
2018-09-05T00:13:09.642Z,75.38
2018-09-05T00:15:38.212Z,74.86
2018-09-05T00:18:07.923Z,75.46
2018-09-05T00:20:36.482Z,75.28
2018-09-05T00:23:04.901Z,75.81
2018-09-05T00:25:33.552Z,76.07
2018-09-05T00:28:02.397Z,76.65
2018-09-05T00:30:30.934Z,76.80
2018-09-05T00:32:59.454Z,76.03
2018-09-05T00:35:28.229Z,76.43
2018-09-05T00:37:57.093Z,77.41
2018-09-05T00:40:25.892Z,77.43
2018-09-05T00:42:54.358Z,77.96
2018-09-05T00:45:22.882Z,77.82
2018-09-05T00:47:51.430Z,77.36
2018-09-05T00:50:19.823Z,78.22
2018-09-05T00:52:48.587Z,78.60
2018-09-05T00:55:17.337Z,78.15
2018-09-05T00:57:45.805Z,79.15
2018-09-05T01:00:14.425Z,79.57
2018-09-05T01:02:42.881Z,78.67
2018-09-05T01:05:11.784Z,78.83
2018-09-05T01:07:40.443Z,79.09
2018-09-05T01:10:08.868Z,79.27
2018-09-05T01:12:37.406Z,80.07
2018-09-05T01:15:06.512Z,80.16
2018-09-05T01:17:34.834Z,80.88
2018-09-05T01:20:03.298Z,80.27
2018-09-05T01:22:32.026Z,80.83
2018-09-05T01:25:00.619Z,80.64
2018-09-05T01:27:29.191Z,81.65
2018-09-05T01:29:58.182Z,81.37
2018-09-05T01:32:26.620Z,82.19
2018-09-05T01:34:55.818Z,81.73
2018-09-05T01:37:24.791Z,81.97
2018-09-05T01:39:53.200Z,81.93
2018-09-05T01:42:21.617Z,82.36
2018-09-05T01:44:50.527Z,82.49
2018-09-05T01:47:19.275Z,83.40
2018-09-05T01:49:47.920Z,83.64
2018-09-05T01:52:16.808Z,83.42
2018-09-05T01:54:45.615Z,84.14
2018-09-05T01:57:14.066Z,83.99
2018-09-05T01:59:42.457Z,84.34
2018-09-05T02:02:11.203Z,84.65
2018-09-05T02:04:39.674Z,85.37
2018-09-05T02:07:08.316Z,85.83
2018-09-05T02:09:36.692Z,86.07
2018-09-05T02:12:05.259Z,85.38
2018-09-05T02:14:33.652Z,85.66
2018-09-05T02:17:02.340Z,86.56
2018-09-05T02:19:31.107Z,86.01
2018-09-05T02:21:59.666Z,86.74
2018-09-05T02:24:28.146Z,86.85
2018-09-05T02:26:56.549Z,86.52
2018-09-05T02:29:25.069Z,87.18
2018-09-05T02:31:53.596Z,87.50
2018-09-05T02:34:22.159Z,87.57
2018-09-05T02:36:50.783Z,86.54
2018-09-05T02:39:19.452Z,87.81
2018-09-05T02:41:48.155Z,87.98
2018-09-05T02:44:21.264Z,87.69
2018-09-05T02:46:49.956Z,87.68
2018-09-05T02:49:18.513Z,88.59
2018-09-05T02:51:47.286Z,88.76
2018-09-05T02:54:15.998Z,89.01
2018-09-05T02:56:44.459Z,88.86
2018-09-05T02:59:13.112Z,88.56
2018-09-05T03:01:41.813Z,89.59
2018-09-05T03:04:10.364Z,89.31
2018-09-05T03:06:39.439Z,89.79
2018-09-05T03:09:08.951Z,90.47
2018-09-05T03:11:37.515Z,89.94
2018-09-05T03:14:06.286Z,90.54
2018-09-05T03:16:35.015Z,90.85
2018-09-05T03:19:04.110Z,91.24
2018-09-05T03:21:32.730Z,91.04
2018-09-05T03:24:01.705Z,91.87
2018-09-05T03:26:30.311Z,92.09
2018-09-05T03:28:58.704Z,92.05
2018-09-05T03:31:27.200Z,91.52
2018-09-05T03:33:55.616Z,91.93
2018-09-05T03:36:24.576Z,91.79
2018-09-05T03:38:53.002Z,92.21
2018-09-05T03:41:21.478Z,92.78
2018-09-05T03:43:50.298Z,92.93
2018-09-05T03:46:18.716Z,92.92
2018-09-05T03:48:47.109Z,92.93
2018-09-05T03:51:15.838Z,92.30
2018-09-05T03:53:44.248Z,92.26
2018-09-05T03:56:13.015Z,92.45
2018-09-05T03:58:42.007Z,92.21
2018-09-05T04:01:10.807Z,92.74
2018-09-05T04:03:39.303Z,93.10
2018-09-05T04:06:07.786Z,92.56
2018-09-05T04:08:36.209Z,93.43
2018-09-05T04:11:04.704Z,93.62
2018-09-05T04:13:34.052Z,93.38
2018-09-05T04:16:05.777Z,94.19
2018-09-05T04:18:34.667Z,93.61
2018-09-05T04:21:03.418Z,93.00
2018-09-05T04:23:50.288Z,93.19
2018-09-05T04:26:19.658Z,94.36
2018-09-05T04:28:48.268Z,94.81
2018-09-05T04:31:16.944Z,94.33
2018-09-05T04:33:45.819Z,94.28
2018-09-05T04:36:15.435Z,94.20
2018-09-05T04:38:45.501Z,94.67
2018-09-05T04:41:13.943Z,93.96
2018-09-05T04:43:42.392Z,94.50
2018-09-05T04:46:11.336Z,94.27
2018-09-05T04:48:39.892Z,93.79
2018-09-05T04:51:08.322Z,94.02
2018-09-05T04:53:37.149Z,93.42
2018-09-05T04:56:05.926Z,93.08
2018-09-05T04:58:34.422Z,93.70
2018-09-05T05:01:02.855Z,94.00
2018-09-05T05:03:31.441Z,95.41
2018-09-05T05:06:00.017Z,95.36
2018-09-05T05:08:28.451Z,94.97
2018-09-05T05:10:56.848Z,96.03
2018-09-05T05:13:25.220Z,95.78
2018-09-05T05:15:53.950Z,95.78
2018-09-05T05:18:22.296Z,96.15
2018-09-05T05:20:50.906Z,96.26
2018-09-05T05:23:19.316Z,97.24
2018-09-05T05:25:47.740Z,97.88
2018-09-05T05:28:16.159Z,98.77
2018-09-05T05:30:44.525Z,99.96
2018-09-05T05:33:12.988Z,100.00
2018-09-05T05:35:41.412Z,100.00
2018-09-05T05:38:10.017Z,100.00
2018-09-05T05:40:38.412Z,100.00
2018-09-05T05:43:07.236Z,100.00
2018-09-05T05:45:35.771Z,100.00
2018-09-05T05:48:04.279Z,100.00
2018-09-05T05:50:32.959Z,100.00
2018-09-05T05:53:01.395Z,100.00
2018-09-05T05:55:29.940Z,100.00
2018-09-05T05:57:58.336Z,100.00
2018-09-05T06:00:27.089Z,100.00
2018-09-05T06:02:56.405Z,100.00
2018-09-05T06:05:24.879Z,100.00
2018-09-05T06:07:53.277Z,100.00
2018-09-05T06:10:24.987Z,100.00
2018-09-05T06:12:55.271Z,100.00
2018-09-05T06:15:24.192Z,100.00
2018-09-05T06:17:52.901Z,100.00
2018-09-05T06:20:21.268Z,100.00
2018-09-05T06:22:50.040Z,100.00
2018-09-05T06:25:18.498Z,100.00
2018-09-05T06:27:46.924Z,100.00
2018-09-05T06:30:15.514Z,100.00
2018-09-05T06:32:43.988Z,100.00
2018-09-05T06:35:12.492Z,100.00
2018-09-05T06:37:41.196Z,100.00
2018-09-05T06:40:09.629Z,100.00
2018-09-05T06:42:38.036Z,100.00
2018-09-05T06:45:06.737Z,100.00
2018-09-05T06:47:35.381Z,100.00
2018-09-05T06:50:04.166Z,100.00
2018-09-05T06:52:32.548Z,100.00
2018-09-05T06:55:00.953Z,100.00
2018-09-05T06:57:29.419Z,100.00
2018-09-05T06:59:57.942Z,100.00
2018-09-05T07:02:27.345Z,100.00
2018-09-05T07:04:55.790Z,100.00
2018-09-05T07:07:24.405Z,100.00
2018-09-05T07:09:52.845Z,100.00
2018-09-05T07:12:21.251Z,100.00
2018-09-05T07:14:49.884Z,100.00
2018-09-05T07:17:18.460Z,100.00
2018-09-05T07:19:46.915Z,100.00
2018-09-05T07:22:15.249Z,100.00
2018-09-05T07:24:43.700Z,100.00
2018-09-05T07:27:12.169Z,100.00
2018-09-05T07:29:41.083Z,100.00
2018-09-05T07:32:09.527Z,100.00
2018-09-05T07:34:38.021Z,100.00
2018-09-05T07:37:06.459Z,100.00
2018-09-05T07:39:35.097Z,100.00
2018-09-05T07:42:03.555Z,100.00
2018-09-05T07:44:32.168Z,100.00
2018-09-05T07:47:00.892Z,100.00
2018-09-05T07:49:29.507Z,100.00
2018-09-05T07:51:57.880Z,100.00
2018-09-05T07:54:26.320Z,100.00
2018-09-05T07:56:55.107Z,100.00
2018-09-05T07:59:23.588Z,100.00
2018-09-05T08:01:52.504Z,100.00
2018-09-05T08:04:21.381Z,100.00
2018-09-05T08:06:49.939Z,100.00
2018-09-05T08:09:18.445Z,100.00
2018-09-05T08:11:46.814Z,99.60
2018-09-05T08:14:15.259Z,97.15
2018-09-05T08:16:43.756Z,96.67
2018-09-05T08:19:12.361Z,97.01
2018-09-05T08:21:40.722Z,98.13
2018-09-05T08:24:09.429Z,98.90
2018-09-05T08:26:37.974Z,98.32
2018-09-05T08:29:06.449Z,99.01
2018-09-05T08:31:34.798Z,98.69
2018-09-05T08:34:03.242Z,99.54
2018-09-05T08:36:32.262Z,99.65
2018-09-05T08:39:00.635Z,98.90
2018-09-05T08:41:29.083Z,96.78
2018-09-05T08:43:57.767Z,95.43
2018-09-05T08:46:26.096Z,92.74
2018-09-05T08:48:54.479Z,91.29
2018-09-05T08:51:22.859Z,91.38
2018-09-05T08:53:51.512Z,91.72
2018-09-05T08:56:20.027Z,91.54
2018-09-05T08:58:48.357Z,91.64
2018-09-05T09:01:16.766Z,93.06
2018-09-05T09:03:45.465Z,92.13
2018-09-05T09:06:13.888Z,91.14
2018-09-05T09:08:42.351Z,90.60
2018-09-05T09:11:10.821Z,90.10
2018-09-05T09:13:39.248Z,90.94
2018-09-05T09:16:07.872Z,91.61
2018-09-05T09:18:36.354Z,90.94
2018-09-05T09:21:04.795Z,89.21
2018-09-05T09:23:33.252Z,88.44
2018-09-05T09:26:01.933Z,87.83
2018-09-05T09:29:04.446Z,85.95
2018-09-05T09:31:33.062Z,85.27
2018-09-05T09:34:01.426Z,85.37
2018-09-05T09:36:29.779Z,85.56
2018-09-05T09:38:58.242Z,84.42
2018-09-05T09:41:26.670Z,82.93
2018-09-05T09:43:55.140Z,82.88
2018-09-05T09:46:23.492Z,83.53
2018-09-05T09:48:52.104Z,82.98
2018-09-05T09:51:22.664Z,82.54
2018-09-05T09:53:51.992Z,80.95
2018-09-05T09:56:20.427Z,80.90
2018-09-05T09:58:48.784Z,80.02
2018-09-05T10:01:22.408Z,80.27
2018-09-05T10:03:56.376Z,80.70
2018-09-05T10:06:30.087Z,79.23
2018-09-05T10:09:03.856Z,77.93
2018-09-05T10:11:37.557Z,78.22
2018-09-05T10:14:16.095Z,79.24
2018-09-05T10:16:49.815Z,77.95
2018-09-05T10:19:18.637Z,77.30
2018-09-05T10:21:47.615Z,76.57
2018-09-05T10:24:16.303Z,75.99
2018-09-05T10:26:44.723Z,75.33
2018-09-05T10:29:13.251Z,75.95
2018-09-05T10:31:42.429Z,75.07
2018-09-05T10:34:10.814Z,74.61
2018-09-05T10:36:39.260Z,73.30
2018-09-05T10:39:09.812Z,73.09
2018-09-05T10:41:38.392Z,73.12
2018-09-05T10:44:07.052Z,72.84
2018-09-05T10:46:35.940Z,71.91
2018-09-05T10:49:04.615Z,72.06
2018-09-05T10:51:38.404Z,71.43
2018-09-05T10:54:06.871Z,70.50
2018-09-05T10:56:35.307Z,70.95
2018-09-05T10:59:03.709Z,70.26
2018-09-05T11:01:32.329Z,71.22
2018-09-05T11:04:00.932Z,71.04
2018-09-05T11:06:29.356Z,69.98
2018-09-05T11:08:57.840Z,69.97
2018-09-05T11:11:26.200Z,69.46
2018-09-05T11:13:54.667Z,69.20
2018-09-05T11:16:23.498Z,68.45
2018-09-05T11:18:51.910Z,68.31
2018-09-05T11:21:20.647Z,68.59
2018-09-05T11:23:49.345Z,68.32
2018-09-05T11:26:17.732Z,67.44
2018-09-05T11:28:46.165Z,67.32
2018-09-05T11:31:14.745Z,67.01
2018-09-05T11:33:43.372Z,67.20
2018-09-05T11:36:11.885Z,67.84
2018-09-05T11:38:40.560Z,67.15
2018-09-05T11:41:09.232Z,67.39
2018-09-05T11:43:38.172Z,66.42
2018-09-05T11:46:06.832Z,66.14
2018-09-05T11:48:35.297Z,65.61
2018-09-05T11:51:03.958Z,65.89
2018-09-05T11:53:32.589Z,65.79
2018-09-05T11:56:01.037Z,65.47
2018-09-05T11:58:29.841Z,65.02
2018-09-05T12:00:58.359Z,63.90
2018-09-05T12:03:27.009Z,63.66
2018-09-05T12:05:55.907Z,62.92
2018-09-05T12:08:24.392Z,63.26
2018-09-05T12:10:52.921Z,62.94
2018-09-05T12:13:21.431Z,62.43
2018-09-05T12:15:49.937Z,61.70
2018-09-05T12:18:18.482Z,61.74
2018-09-05T12:20:46.927Z,60.92
2018-09-05T12:23:15.950Z,59.87
2018-09-05T12:25:44.345Z,60.83
2018-09-05T12:28:13.114Z,60.73
2018-09-05T12:30:41.981Z,60.64
2018-09-05T12:33:11.128Z,60.09
2018-09-05T12:35:39.916Z,60.16
2018-09-05T12:38:09.073Z,60.09
2018-09-05T12:40:37.736Z,59.44
2018-09-05T12:43:06.258Z,59.53
2018-09-05T12:45:34.814Z,60.38
2018-09-05T12:48:03.399Z,58.79
2018-09-05T12:50:31.879Z,58.16
2018-09-05T12:53:00.530Z,57.01
2018-09-05T12:55:28.869Z,58.22
2018-09-05T12:57:57.310Z,57.58
2018-09-05T13:00:26.110Z,56.38
2018-09-05T13:02:54.895Z,57.32
2018-09-05T13:05:23.399Z,57.68
2018-09-05T13:07:51.959Z,56.15
2018-09-05T13:10:20.367Z,55.76
2018-09-05T13:12:48.816Z,56.87
2018-09-05T13:15:18.325Z,54.40
2018-09-05T13:17:46.874Z,54.23
2018-09-05T13:20:15.658Z,54.16
2018-09-05T13:22:44.309Z,54.77
2018-09-05T13:25:13.066Z,53.95
2018-09-05T13:27:41.746Z,53.43
2018-09-05T13:30:11.284Z,53.79
2018-09-05T13:32:39.707Z,53.96
2018-09-05T13:35:08.633Z,53.86
2018-09-05T13:37:37.342Z,53.36
2018-09-05T13:40:05.857Z,53.35
2018-09-05T13:42:34.364Z,52.63
2018-09-05T13:45:02.986Z,53.37
2018-09-05T13:47:32.155Z,52.52
2018-09-05T13:50:01.155Z,52.46
2018-09-05T13:52:29.731Z,53.31
2018-09-05T13:54:58.136Z,52.24
2018-09-05T13:57:26.585Z,51.96
2018-09-05T13:59:55.246Z,51.58
2018-09-05T14:02:23.623Z,52.22
2018-09-05T14:04:52.047Z,51.37
2018-09-05T14:07:20.510Z,52.16
2018-09-05T14:09:48.946Z,52.04
2018-09-05T14:12:17.445Z,51.25
2018-09-05T14:14:45.803Z,50.32
2018-09-05T14:17:14.561Z,50.55
2018-09-05T14:19:42.964Z,50.58
2018-09-05T14:22:12.278Z,50.30
2018-09-05T14:24:41.353Z,50.64
2018-09-05T14:27:09.795Z,50.27
2018-09-05T14:29:38.443Z,50.17
2018-09-05T14:32:06.852Z,49.75
2018-09-05T14:34:35.306Z,50.15
2018-09-05T14:37:04.065Z,49.93
2018-09-05T14:39:32.878Z,49.62
2018-09-05T14:42:01.438Z,50.48
2018-09-05T14:44:29.918Z,49.97
2018-09-05T14:46:58.336Z,49.65
2018-09-05T14:49:27.215Z,48.67
2018-09-05T14:51:55.890Z,48.45
2018-09-05T14:54:25.080Z,49.71
2018-09-05T14:56:54.523Z,48.45
2018-09-05T14:59:23.270Z,48.61
2018-09-05T15:01:52.631Z,48.01
2018-09-05T15:04:21.345Z,48.59
2018-09-05T15:06:49.841Z,48.74
2018-09-05T15:09:18.273Z,48.36
2018-09-05T15:11:47.363Z,48.35
2018-09-05T15:14:16.661Z,47.96
2018-09-05T15:16:45.584Z,48.88
2018-09-05T15:19:18.781Z,47.70
2018-09-05T15:21:48.463Z,48.32
2018-09-05T15:24:17.900Z,48.13
2018-09-05T15:26:48.077Z,48.11
2018-09-05T15:29:34.569Z,48.27
2018-09-05T15:32:03.884Z,48.35
2018-09-05T15:34:32.712Z,48.40
2018-09-05T15:37:01.622Z,48.03
2018-09-05T15:39:31.279Z,48.56
2018-09-05T15:42:00.359Z,46.95
2018-09-05T15:44:30.028Z,46.95
2018-09-05T15:46:59.593Z,47.10
2018-09-05T15:49:29.311Z,46.66
2018-09-05T15:51:59.096Z,45.66
2018-09-05T15:54:28.554Z,46.23
2018-09-05T15:56:58.151Z,46.39
2018-09-05T15:59:27.382Z,45.94
2018-09-05T16:01:57.138Z,45.73
2018-09-05T16:04:26.509Z,45.51
2018-09-05T16:06:55.944Z,45.17
2018-09-05T16:09:26.013Z,45.41
2018-09-05T16:11:55.837Z,45.87
2018-09-05T16:14:24.891Z,45.45
2018-09-05T16:16:53.877Z,45.58
2018-09-05T16:19:22.592Z,45.01
2018-09-05T16:21:51.817Z,44.00
2018-09-05T16:24:20.959Z,43.30
2018-09-05T16:26:49.834Z,42.44
2018-09-05T16:29:18.540Z,43.34
2018-09-05T16:31:47.286Z,42.80
2018-09-05T16:34:16.592Z,42.20
2018-09-05T16:36:46.096Z,42.53
2018-09-05T16:39:15.710Z,41.55
2018-09-05T16:41:45.157Z,41.35
2018-09-05T16:44:14.268Z,41.34
2018-09-05T16:46:49.696Z,41.38
2018-09-05T16:49:18.912Z,41.17
2018-09-05T16:51:47.451Z,40.89
2018-09-05T16:54:16.260Z,41.10
2018-09-05T16:56:45.151Z,41.75
2018-09-05T16:59:13.687Z,42.11
2018-09-05T17:01:42.327Z,42.90
2018-09-05T17:04:10.974Z,42.33
2018-09-05T17:06:39.967Z,42.69
2018-09-05T17:09:10.847Z,42.65
2018-09-05T17:11:39.597Z,42.74
2018-09-05T17:14:08.054Z,42.40
2018-09-05T17:16:36.848Z,43.61
2018-09-05T17:19:05.968Z,43.16
2018-09-05T17:21:34.793Z,43.53
2018-09-05T17:24:03.711Z,44.23
2018-09-05T17:26:32.223Z,43.48
2018-09-05T17:29:00.711Z,45.04
2018-09-05T17:31:29.759Z,44.67
2018-09-05T17:33:58.718Z,44.06
2018-09-05T17:36:27.530Z,45.20
2018-09-05T17:38:56.478Z,44.15
2018-09-05T17:41:25.151Z,44.42
2018-09-05T17:43:54.112Z,44.97
2018-09-05T17:46:23.113Z,45.32
2018-09-05T17:48:52.818Z,45.16
2018-09-05T17:51:21.618Z,46.37
2018-09-05T17:53:50.437Z,46.22
2018-09-05T17:56:19.008Z,45.76
2018-09-05T17:58:47.631Z,46.92
2018-09-05T18:01:18.582Z,46.36
2018-09-05T18:03:47.227Z,46.61
2018-09-05T18:06:16.325Z,46.87
2018-09-05T18:08:44.887Z,47.04
2018-09-05T18:11:13.794Z,47.85
2018-09-05T18:13:42.587Z,48.48
2018-09-05T18:16:11.328Z,48.30
2018-09-05T18:18:39.988Z,48.45
2018-09-05T18:21:08.914Z,49.19
2018-09-05T18:23:37.658Z,48.98
2018-09-05T18:26:06.567Z,49.34
2018-09-05T18:28:35.056Z,49.27
2018-09-05T18:31:03.896Z,50.09
2018-09-05T18:33:32.453Z,50.69
2018-09-05T18:36:01.416Z,50.63
2018-09-05T18:38:30.552Z,51.37
2018-09-05T18:40:59.462Z,51.77
2018-09-05T18:43:28.846Z,51.77
2018-09-05T18:45:57.357Z,52.03
2018-09-05T18:48:25.909Z,52.38
2018-09-05T18:50:54.600Z,53.17
2018-09-05T18:53:23.349Z,53.34
2018-09-05T18:55:52.408Z,54.61
2018-09-05T18:58:20.922Z,54.04
2018-09-05T19:00:49.420Z,54.42
2018-09-05T19:03:18.152Z,54.80
2018-09-05T19:05:46.894Z,55.43
2018-09-05T19:08:15.374Z,55.53
2018-09-05T19:10:43.731Z,55.77
2018-09-05T19:13:12.267Z,56.38
2018-09-05T19:15:40.996Z,57.25
2018-09-05T19:18:09.394Z,58.40
2018-09-05T19:20:37.817Z,58.51
2018-09-05T19:23:06.259Z,58.91
2018-09-05T19:25:34.756Z,59.39
2018-09-05T19:28:03.370Z,59.82
2018-09-05T19:30:34.259Z,59.97
2018-09-05T19:33:02.707Z,59.94
2018-09-05T19:35:31.626Z,59.97
2018-09-05T19:38:00.079Z,60.59
2018-09-05T19:40:28.627Z,61.07
2018-09-05T19:42:57.320Z,60.93
2018-09-05T19:45:25.997Z,61.39
2018-09-05T19:47:54.419Z,61.62
2018-09-05T19:50:23.024Z,61.95
2018-09-05T19:52:51.464Z,62.69
2018-09-05T19:55:19.926Z,61.97
2018-09-05T19:57:48.332Z,63.06
2018-09-05T20:00:17.625Z,62.33
2018-09-05T20:02:46.004Z,63.24
2018-09-05T20:05:14.492Z,63.49
2018-09-05T20:07:44.128Z,63.73
2018-09-05T20:10:12.987Z,63.89
2018-09-05T20:12:42.402Z,63.87
2018-09-05T20:15:11.184Z,64.85
2018-09-05T20:17:39.786Z,64.60
2018-09-05T20:20:08.315Z,64.92
2018-09-05T20:22:36.672Z,65.12
2018-09-05T20:25:05.160Z,65.23
2018-09-05T20:27:33.508Z,66.35
2018-09-05T20:30:01.824Z,66.57
2018-09-05T20:32:30.405Z,66.97
2018-09-05T20:34:58.765Z,67.33
2018-09-05T20:37:27.088Z,67.47
2018-09-05T20:39:55.422Z,67.71
2018-09-05T20:42:23.967Z,68.65
2018-09-05T20:44:52.354Z,68.51
2018-09-05T20:47:20.722Z,69.21
2018-09-05T20:49:49.415Z,69.08
2018-09-05T20:52:17.839Z,68.85
2018-09-05T20:54:46.228Z,68.80
2018-09-05T20:57:14.555Z,70.04
2018-09-05T20:59:42.877Z,69.88
2018-09-05T21:02:11.298Z,70.15
2018-09-05T21:04:39.653Z,71.31
2018-09-05T21:07:08.021Z,70.99
2018-09-05T21:09:36.492Z,72.13
2018-09-05T21:12:04.869Z,71.78
2018-09-05T21:14:33.532Z,71.98
2018-09-05T21:17:02.267Z,72.44
2018-09-05T21:19:30.618Z,72.67
2018-09-05T21:21:58.945Z,72.51
2018-09-05T21:24:27.288Z,72.36
2018-09-05T21:26:55.667Z,72.77
2018-09-05T21:29:23.997Z,73.26
2018-09-05T21:31:52.327Z,73.63
2018-09-05T21:34:20.644Z,73.11
2018-09-05T21:36:48.968Z,73.74
2018-09-05T21:39:17.307Z,74.88
2018-09-05T21:41:45.649Z,74.58
2018-09-05T21:44:13.939Z,74.66
2018-09-05T21:46:42.251Z,74.32
2018-09-05T21:49:10.610Z,75.13
2018-09-05T21:51:39.010Z,75.57
2018-09-05T21:54:07.348Z,76.39
2018-09-05T21:56:35.656Z,77.40
2018-09-05T21:59:04.025Z,77.11
2018-09-05T22:01:32.340Z,77.71
2018-09-05T22:04:00.671Z,77.82
2018-09-05T22:06:29.011Z,76.89
2018-09-05T22:08:57.328Z,76.88
2018-09-05T22:11:26.622Z,77.09
2018-09-05T22:13:55.640Z,77.11
2018-09-05T22:16:24.281Z,77.22
2018-09-05T22:18:52.847Z,78.23
2018-09-05T22:21:21.205Z,79.83
2018-09-05T22:23:49.496Z,80.23
2018-09-05T22:26:17.872Z,80.13
2018-09-05T22:28:46.234Z,80.10
2018-09-05T22:31:14.610Z,80.19
2018-09-05T22:33:42.977Z,80.98
2018-09-05T22:36:11.327Z,80.46
2018-09-05T22:38:39.932Z,79.87
2018-09-05T22:41:08.340Z,81.17
2018-09-05T22:43:47.868Z,81.66
2018-09-05T22:46:27.620Z,81.16
2018-09-05T22:51:21.712Z,82.14
2018-09-05T22:54:16.564Z,81.80
2018-09-05T22:57:05.127Z,81.92
2018-09-05T23:00:18.033Z,82.27
2018-09-05T23:05:01.864Z,81.77
2018-09-05T23:08:40.135Z,82.00
2018-09-05T23:11:22.317Z,82.97
2018-09-05T23:14:01.860Z,83.16
2018-09-05T23:16:41.941Z,82.47
2018-09-05T23:19:38.873Z,83.13
2018-09-05T23:22:07.228Z,83.94
2018-09-05T23:24:35.882Z,83.58
2018-09-05T23:27:04.272Z,83.43
2018-09-05T23:29:32.931Z,83.85
2018-09-05T23:32:01.341Z,83.22
2018-09-05T23:34:29.655Z,83.46
2018-09-05T23:36:57.961Z,83.15
2018-09-05T23:39:26.324Z,83.76
2018-09-05T23:41:54.644Z,83.21
2018-09-05T23:44:23.377Z,83.88
2018-09-05T23:46:51.732Z,84.56
2018-09-05T23:49:20.061Z,83.88
2018-09-05T23:51:48.567Z,84.36
2018-09-05T23:54:16.892Z,84.67
2018-09-05T23:56:45.271Z,84.89
2018-09-05T23:59:13.616Z,84.85
